createdAt,value
2023-01-08T00:01:13.283Z,9.65
2023-01-08T00:03:40.961Z,10.93
2023-01-08T00:06:12.181Z,10.45
2023-01-08T00:08:39.079Z,10.82
2023-01-08T00:11:05.983Z,8.27
2023-01-08T00:13:32.990Z,10.48
2023-01-08T00:16:04.586Z,9.73
2023-01-08T00:18:31.449Z,8.57
2023-01-08T00:20:58.398Z,9.70
2023-01-08T00:23:25.563Z,11.63
2023-01-08T00:25:52.328Z,9.80
2023-01-08T00:28:20.954Z,11.60
2023-01-08T00:30:48.641Z,9.45
2023-01-08T00:33:15.753Z,11.60
2023-01-08T00:35:42.515Z,9.00
2023-01-08T00:38:09.282Z,7.60
2023-01-08T00:40:36.849Z,10.38
2023-01-08T00:43:04.350Z,9.93
2023-01-08T00:45:31.374Z,11.23
2023-01-08T00:47:58.834Z,10.95
2023-01-08T00:50:26.225Z,9.90
2023-01-08T00:52:53.014Z,10.25
2023-01-08T00:55:19.803Z,8.93
2023-01-08T00:57:46.510Z,8.70
2023-01-08T01:00:15.503Z,10.93
2023-01-08T01:02:43.273Z,8.48
2023-01-08T01:05:15.133Z,10.20
2023-01-08T01:07:43.083Z,8.75
2023-01-08T01:10:11.097Z,9.25
2023-01-08T01:12:38.860Z,8.95
2023-01-08T01:15:07.880Z,8.23
2023-01-08T01:17:35.174Z,9.07
2023-01-08T01:20:02.067Z,8.90
2023-01-08T01:22:28.844Z,8.90
2023-01-08T01:24:55.567Z,8.55
2023-01-08T01:27:22.273Z,9.55
2023-01-08T01:29:48.999Z,7.72
2023-01-08T01:32:15.869Z,8.63
2023-01-08T01:34:42.658Z,7.22
2023-01-08T01:37:13.057Z,8.07
2023-01-08T01:39:40.875Z,9.00
2023-01-08T01:42:29.735Z,8.82
2023-01-08T01:44:56.552Z,8.57
2023-01-08T01:47:41.501Z,8.13
2023-01-08T01:50:11.355Z,9.05
2023-01-08T01:52:42.038Z,8.27
2023-01-08T01:55:11.382Z,7.65
2023-01-08T01:57:39.239Z,11.00
2023-01-08T02:00:09.454Z,9.00
2023-01-08T02:02:36.136Z,9.95
2023-01-08T02:05:02.967Z,8.55
2023-01-08T02:07:44.647Z,7.78
2023-01-08T02:10:15.015Z,10.13
2023-01-08T02:12:54.937Z,9.10
2023-01-08T02:15:33.665Z,8.82
2023-01-08T02:18:14.498Z,8.15
2023-01-08T02:20:49.690Z,7.18
2023-01-08T02:23:34.616Z,6.93
2023-01-08T02:26:04.027Z,8.43
2023-01-08T02:28:34.129Z,8.30
2023-01-08T02:33:29.462Z,7.13
2023-01-08T02:36:15.970Z,7.72
2023-01-08T02:39:02.787Z,7.25
2023-01-08T02:41:49.969Z,7.65
2023-01-08T02:44:43.340Z,6.47
2023-01-08T02:47:16.318Z,7.38
2023-01-08T02:49:46.484Z,8.93
2023-01-08T02:54:44.405Z,10.88
2023-01-08T02:57:14.780Z,8.85
2023-01-08T02:59:44.089Z,6.75
2023-01-08T03:02:12.065Z,8.23
2023-01-08T03:04:46.768Z,8.02
2023-01-08T03:07:13.596Z,7.65
2023-01-08T03:09:40.341Z,8.05
2023-01-08T03:12:18.623Z,6.20
2023-01-08T03:14:52.792Z,7.70
2023-01-08T03:17:31.589Z,8.18
2023-01-08T03:20:03.509Z,8.32
2023-01-08T03:22:31.951Z,8.73
2023-01-08T03:24:59.705Z,6.82
2023-01-08T03:27:29.498Z,6.35
2023-01-08T03:29:58.368Z,7.80
2023-01-08T03:32:28.698Z,6.40
2023-01-08T03:34:58.772Z,7.28
2023-01-08T03:40:16.563Z,6.15
2023-01-08T03:42:43.342Z,6.15
2023-01-08T03:45:10.345Z,6.45
2023-01-08T03:47:39.212Z,7.28
2023-01-08T03:50:11.217Z,7.30
2023-01-08T03:52:37.967Z,7.60
2023-01-08T03:55:05.321Z,6.50
2023-01-08T03:57:32.062Z,5.15
2023-01-08T03:59:58.786Z,6.95
2023-01-08T04:02:25.698Z,6.32
2023-01-08T04:04:52.559Z,6.85
2023-01-08T04:07:19.287Z,6.38
2023-01-08T04:09:47.030Z,6.53
2023-01-08T04:12:13.797Z,5.55
2023-01-08T04:14:40.509Z,4.97
2023-01-08T04:17:07.304Z,5.10
2023-01-08T04:19:34.010Z,4.72
2023-01-08T04:22:00.729Z,5.50
2023-01-08T04:24:27.478Z,5.85
2023-01-08T04:26:54.161Z,5.88
2023-01-08T04:29:20.876Z,4.90
2023-01-08T04:31:47.699Z,5.43
2023-01-08T04:34:14.490Z,4.95
2023-01-08T04:36:41.325Z,4.85
2023-01-08T04:39:08.526Z,4.45
2023-01-08T04:41:35.268Z,5.07
2023-01-08T04:44:01.986Z,5.97
2023-01-08T04:46:28.847Z,5.78
2023-01-08T04:48:55.615Z,5.95
2023-01-08T04:51:23.211Z,6.55
2023-01-08T04:53:49.917Z,6.13
2023-01-08T04:56:16.608Z,4.80
2023-01-08T04:58:43.367Z,4.97
2023-01-08T05:01:18.237Z,6.15
2023-01-08T05:03:45.080Z,6.78
2023-01-08T05:06:11.904Z,7.90
2023-01-08T05:08:38.668Z,5.60
2023-01-08T05:11:05.483Z,5.32
2023-01-08T05:13:32.202Z,4.80
2023-01-08T05:16:00.546Z,6.03
2023-01-08T05:18:28.827Z,4.97
2023-01-08T05:20:55.792Z,7.32
2023-01-08T05:23:22.558Z,5.20
2023-01-08T05:25:49.296Z,4.57
2023-01-08T05:28:16.085Z,5.18
2023-01-08T05:30:42.895Z,4.57
2023-01-08T05:33:09.620Z,4.80
2023-01-08T05:35:38.749Z,4.72
2023-01-08T05:38:05.486Z,4.13
2023-01-08T05:40:32.183Z,5.28
2023-01-08T05:43:02.970Z,5.43
2023-01-08T05:45:29.684Z,7.10
2023-01-08T05:47:56.422Z,5.80
2023-01-08T05:50:23.141Z,4.65
2023-01-08T05:52:49.894Z,6.47
2023-01-08T05:55:16.725Z,6.05
2023-01-08T05:57:43.516Z,6.25
2023-01-08T06:00:11.205Z,5.43
2023-01-08T06:02:38.201Z,5.13
2023-01-08T06:05:05.616Z,5.30
2023-01-08T06:07:32.386Z,6.00
2023-01-08T06:09:59.074Z,6.82
2023-01-08T06:12:25.772Z,7.18
2023-01-08T06:14:52.484Z,4.88
2023-01-08T06:17:19.282Z,6.30
2023-01-08T06:19:47.439Z,5.30
2023-01-08T06:22:14.446Z,3.88
2023-01-08T06:24:41.160Z,5.03
2023-01-08T06:27:07.964Z,5.97
2023-01-08T06:29:34.704Z,5.75
2023-01-08T06:32:01.428Z,5.60
2023-01-08T06:34:28.145Z,4.95
2023-01-08T06:36:54.972Z,5.38
2023-01-08T06:39:21.652Z,4.55
2023-01-08T06:41:48.396Z,6.20
2023-01-08T06:44:15.133Z,5.65
2023-01-08T06:46:42.095Z,5.32
2023-01-08T06:49:09.417Z,4.78
2023-01-08T06:51:36.721Z,5.35
2023-01-08T06:54:03.577Z,6.65
2023-01-08T06:56:30.348Z,4.38
2023-01-08T06:58:57.110Z,5.97
2023-01-08T07:01:24.121Z,4.63
2023-01-08T07:03:50.898Z,4.75
2023-01-08T07:06:22.595Z,5.13
2023-01-08T07:08:49.587Z,6.35
2023-01-08T07:11:16.609Z,5.38
2023-01-08T07:13:43.321Z,4.50
2023-01-08T07:16:12.160Z,5.32
2023-01-08T07:18:39.449Z,6.57
2023-01-08T07:21:07.480Z,6.30
2023-01-08T07:23:34.628Z,6.28
2023-01-08T07:26:02.912Z,5.45
2023-01-08T07:28:30.372Z,5.90
2023-01-08T07:30:57.573Z,4.60
2023-01-08T07:33:24.354Z,6.45
2023-01-08T07:35:55.337Z,5.05
2023-01-08T07:38:22.620Z,6.00
2023-01-08T07:40:49.757Z,5.97
2023-01-08T07:43:16.461Z,5.55
2023-01-08T07:45:43.381Z,5.97
2023-01-08T07:48:10.657Z,6.25
2023-01-08T07:50:39.823Z,5.82
2023-01-08T07:55:34.162Z,6.10
2023-01-08T07:58:00.915Z,5.65
2023-01-08T08:00:28.043Z,6.47
2023-01-08T08:02:55.125Z,5.93
2023-01-08T08:05:21.951Z,5.38
2023-01-08T08:07:48.690Z,4.95
2023-01-08T08:10:15.539Z,6.30
2023-01-08T08:12:45.023Z,8.02
2023-01-08T08:15:11.792Z,5.43
2023-01-08T08:17:38.599Z,5.93
2023-01-08T08:20:05.835Z,6.20
2023-01-08T08:22:32.643Z,6.07
2023-01-08T08:24:59.398Z,5.78
2023-01-08T08:27:26.121Z,5.97
2023-01-08T08:29:52.880Z,7.28
2023-01-08T08:32:19.704Z,6.32
2023-01-08T08:34:46.450Z,7.90
2023-01-08T08:37:13.222Z,6.70
2023-01-08T08:39:39.986Z,9.18
2023-01-08T08:42:06.767Z,7.70
2023-01-08T08:44:33.566Z,7.43
2023-01-08T08:47:00.691Z,7.95
2023-01-08T08:49:27.547Z,6.97
2023-01-08T08:51:54.417Z,9.77
2023-01-08T08:54:21.178Z,7.07
2023-01-08T08:56:48.604Z,7.22
2023-01-08T08:59:15.610Z,6.18
2023-01-08T09:01:42.447Z,5.63
2023-01-08T09:04:09.294Z,6.10
2023-01-08T09:06:36.052Z,6.88
2023-01-08T09:09:02.960Z,5.35
2023-01-08T09:11:29.728Z,6.43
2023-01-08T09:13:56.482Z,8.02
2023-01-08T09:16:23.266Z,5.97
2023-01-08T09:18:50.133Z,5.35
2023-01-08T09:21:16.961Z,4.93
2023-01-08T09:23:43.690Z,4.60
2023-01-08T09:26:10.475Z,4.93
2023-01-08T09:28:38.112Z,5.88
2023-01-08T09:31:05.250Z,5.50
2023-01-08T09:33:32.082Z,5.85
2023-01-08T09:35:58.876Z,5.85
2023-01-08T09:38:27.178Z,4.05
2023-01-08T09:41:08.596Z,4.00
2023-01-08T09:46:07.088Z,4.07
2023-01-08T09:48:37.569Z,4.35
2023-01-08T09:51:05.363Z,4.55
2023-01-08T09:53:33.500Z,5.68
2023-01-08T09:56:11.241Z,4.15
2023-01-08T09:58:54.399Z,3.63
2023-01-08T10:01:24.597Z,3.80
2023-01-08T10:06:27.304Z,3.72
2023-01-08T10:08:54.090Z,3.85
2023-01-08T10:11:22.327Z,3.63
2023-01-08T10:13:53.913Z,5.00
2023-01-08T10:16:30.587Z,4.75
2023-01-08T10:18:58.754Z,4.43
2023-01-08T10:21:33.216Z,4.65
2023-01-08T10:24:00.203Z,3.25
2023-01-08T10:26:32.233Z,2.78
2023-01-08T10:29:18.610Z,3.13
2023-01-08T10:31:54.628Z,4.10
2023-01-08T10:34:30.690Z,3.33
2023-01-08T10:36:57.499Z,3.03
2023-01-08T10:39:27.410Z,2.85
2023-01-08T10:41:58.658Z,3.53
2023-01-08T10:44:26.265Z,3.70
2023-01-08T10:46:57.387Z,3.67
2023-01-08T10:49:39.256Z,4.22
2023-01-08T10:52:06.449Z,3.38
2023-01-08T10:54:37.695Z,4.47
2023-01-08T10:57:22.522Z,3.95
2023-01-08T10:59:49.362Z,7.38
2023-01-08T11:02:29.288Z,5.57
2023-01-08T11:04:56.272Z,3.65
2023-01-08T11:07:24.232Z,3.88
2023-01-08T11:09:52.254Z,3.38
2023-01-08T11:12:38.904Z,2.92
2023-01-08T11:15:32.952Z,4.68
2023-01-08T11:18:17.841Z,3.03
2023-01-08T11:20:45.400Z,3.70
2023-01-08T11:23:17.111Z,5.28
2023-01-08T11:26:06.493Z,6.32
2023-01-08T11:28:55.936Z,3.08
2023-01-08T11:31:34.751Z,2.70
2023-01-08T11:34:15.618Z,2.45
2023-01-08T11:37:17.177Z,2.20
2023-01-08T11:39:43.973Z,2.13
2023-01-08T11:42:27.344Z,2.30
2023-01-08T11:45:13.170Z,2.60
2023-01-08T11:47:46.425Z,3.20
2023-01-08T11:50:25.185Z,2.78
2023-01-08T11:53:28.997Z,4.43
2023-01-08T11:56:09.227Z,2.80
2023-01-08T11:59:02.309Z,4.13
2023-01-08T12:02:07.058Z,3.25
2023-01-08T12:04:58.370Z,2.78
2023-01-08T12:07:57.882Z,5.68
2023-01-08T12:10:43.685Z,2.65
2023-01-08T12:13:31.531Z,3.45
2023-01-08T12:16:26.313Z,3.50
2023-01-08T12:19:14.661Z,4.70
2023-01-08T12:21:53.284Z,3.38
2023-01-08T12:24:38.362Z,4.65
2023-01-08T12:27:17.487Z,3.78
2023-01-08T12:30:09.050Z,3.30
2023-01-08T12:32:50.564Z,3.47
2023-01-08T12:35:29.140Z,3.38
2023-01-08T12:38:30.219Z,2.90
2023-01-08T12:41:03.636Z,4.55
2023-01-08T12:43:55.655Z,3.03
2023-01-08T12:46:24.646Z,2.70
2023-01-08T12:48:53.831Z,3.20
2023-01-08T12:51:41.152Z,3.40
2023-01-08T12:54:35.809Z,3.00
2023-01-08T12:57:16.744Z,5.15
2023-01-08T12:59:48.530Z,3.17
2023-01-08T13:02:27.418Z,3.10
2023-01-08T13:04:54.535Z,4.93
2023-01-08T13:07:33.259Z,1.98
2023-01-08T13:10:05.838Z,2.47
2023-01-08T13:12:40.942Z,2.53
2023-01-08T13:15:08.870Z,2.00
2023-01-08T13:17:37.839Z,3.22
2023-01-08T13:20:08.207Z,2.95
2023-01-08T13:25:18.099Z,2.15
2023-01-08T13:27:46.874Z,3.60
2023-01-08T13:30:35.333Z,3.17
2023-01-08T13:33:02.147Z,4.88
2023-01-08T13:35:31.623Z,4.15
2023-01-08T13:38:10.544Z,3.53
2023-01-08T13:40:43.077Z,3.75
2023-01-08T13:43:26.597Z,3.72
2023-01-08T13:46:02.526Z,4.60
2023-01-08T13:48:33.990Z,3.95
2023-01-08T13:51:01.227Z,3.83
2023-01-08T13:53:28.122Z,4.63
2023-01-08T13:56:05.236Z,5.18
2023-01-08T13:58:44.589Z,3.10
2023-01-08T14:01:13.315Z,3.95
2023-01-08T14:03:46.371Z,4.28
2023-01-08T14:06:27.580Z,3.78
2023-01-08T14:08:56.554Z,3.42
2023-01-08T14:11:32.366Z,2.83
2023-01-08T14:13:59.568Z,5.20
2023-01-08T14:16:26.483Z,4.63
2023-01-08T14:19:00.191Z,4.00
2023-01-08T14:21:27.238Z,3.35
2023-01-08T14:23:54.213Z,6.40
2023-01-08T14:26:27.397Z,3.00
2023-01-08T14:28:55.014Z,4.95
2023-01-08T14:31:23.877Z,3.72
2023-01-08T14:33:53.262Z,3.83
2023-01-08T14:36:20.885Z,4.20
2023-01-08T14:38:50.977Z,7.25
2023-01-08T14:41:46.326Z,3.97
2023-01-08T14:44:14.757Z,4.85
2023-01-08T14:46:46.208Z,4.72
2023-01-08T14:49:27.322Z,5.43
2023-01-08T14:51:55.297Z,4.40
2023-01-08T14:54:28.702Z,9.38
2023-01-08T14:56:58.940Z,5.70
2023-01-08T14:59:29.584Z,6.40
2023-01-08T15:02:00.583Z,7.28
2023-01-08T15:04:29.521Z,7.35
2023-01-08T15:07:22.179Z,5.10
2023-01-08T15:10:03.501Z,4.78
2023-01-08T15:12:32.273Z,4.38
2023-01-08T15:15:32.268Z,6.00
2023-01-08T15:17:59.223Z,8.07
2023-01-08T15:20:31.417Z,8.32
2023-01-08T15:22:58.905Z,6.28
2023-01-08T15:25:30.329Z,5.55
2023-01-08T15:28:02.505Z,4.68
2023-01-08T15:30:43.776Z,4.43
2023-01-08T15:33:19.018Z,4.80
2023-01-08T15:35:46.168Z,4.22
2023-01-08T15:38:13.369Z,9.77
2023-01-08T15:40:40.788Z,6.28
2023-01-08T15:43:12.906Z,4.28
2023-01-08T15:45:42.488Z,8.05
2023-01-08T15:48:11.013Z,7.78
2023-01-08T15:50:40.821Z,5.13
2023-01-08T15:53:16.816Z,4.97
2023-01-08T15:55:44.459Z,13.98
2023-01-08T15:58:12.787Z,9.85
2023-01-08T16:00:41.029Z,12.95
2023-01-08T16:03:08.277Z,9.45
2023-01-08T16:05:36.389Z,9.30
2023-01-08T16:08:04.364Z,11.32
2023-01-08T16:10:31.467Z,10.27
2023-01-08T16:12:59.283Z,12.65
2023-01-08T16:15:26.253Z,12.63
2023-01-08T16:17:53.000Z,11.35
2023-01-08T16:20:19.789Z,9.82
2023-01-08T16:22:46.533Z,11.07
2023-01-08T16:25:13.512Z,11.52
2023-01-08T16:27:41.071Z,8.55
2023-01-08T16:30:15.083Z,8.70
2023-01-08T16:32:42.235Z,10.05
2023-01-08T16:35:10.583Z,8.50
2023-01-08T16:37:37.772Z,9.52
2023-01-08T16:40:04.980Z,7.85
2023-01-08T16:42:31.824Z,9.10
2023-01-08T16:44:58.534Z,6.80
2023-01-08T16:47:25.281Z,7.32
2023-01-08T16:49:52.518Z,9.35
2023-01-08T16:52:19.525Z,7.68
2023-01-08T16:54:47.326Z,9.25
2023-01-08T16:57:14.478Z,7.15
2023-01-08T16:59:41.509Z,8.57
2023-01-08T17:02:09.830Z,7.95
2023-01-08T17:04:36.722Z,9.10
2023-01-08T17:07:04.423Z,13.43
2023-01-08T17:09:31.195Z,12.00
2023-01-08T17:11:57.925Z,17.92
2023-01-08T17:14:24.670Z,12.77
2023-01-08T17:16:51.371Z,12.15
2023-01-08T17:19:18.068Z,10.68
2023-01-08T17:21:45.904Z,11.57
2023-01-08T17:24:12.929Z,12.88
2023-01-08T17:26:39.715Z,11.52
2023-01-08T17:29:06.430Z,12.27
2023-01-08T17:31:39.645Z,14.45
2023-01-08T17:34:08.432Z,12.05
2023-01-08T17:36:36.160Z,13.23
2023-01-08T17:39:03.518Z,12.07
2023-01-08T17:41:48.659Z,12.77
2023-01-08T17:44:15.417Z,10.77
2023-01-08T17:46:45.061Z,12.25
2023-01-08T17:49:14.064Z,12.70
2023-01-08T17:51:41.997Z,11.95
2023-01-08T17:54:17.098Z,12.30
2023-01-08T17:56:44.108Z,12.20
2023-01-08T17:59:16.378Z,10.85
2023-01-08T18:01:45.090Z,10.48
2023-01-08T18:04:15.652Z,15.02
2023-01-08T18:06:42.652Z,10.57
2023-01-08T18:09:11.968Z,11.05
2023-01-08T18:11:42.369Z,12.98
2023-01-08T18:14:13.049Z,9.30
2023-01-08T18:16:45.218Z,10.63
2023-01-08T18:19:12.690Z,10.70
2023-01-08T18:21:39.410Z,13.50
2023-01-08T18:24:06.546Z,11.40
2023-01-08T18:26:33.278Z,12.13
2023-01-08T18:29:00.160Z,11.95
2023-01-08T18:31:27.022Z,12.77
2023-01-08T18:33:53.792Z,13.27
2023-01-08T18:36:21.288Z,13.68
2023-01-08T18:38:48.955Z,12.18
2023-01-08T18:41:37.198Z,14.25
2023-01-08T18:44:06.692Z,10.63
2023-01-08T18:46:33.661Z,12.00
2023-01-08T18:49:00.635Z,10.77
2023-01-08T18:51:27.408Z,12.35
2023-01-08T18:53:55.661Z,10.77
2023-01-08T18:56:27.797Z,12.05
2023-01-08T18:58:54.616Z,13.02
2023-01-08T19:01:21.532Z,11.38
2023-01-08T19:03:48.370Z,10.60
2023-01-08T19:06:16.957Z,11.68
2023-01-08T19:08:45.069Z,14.52
2023-01-08T19:11:12.690Z,12.52
2023-01-08T19:13:40.140Z,11.20
2023-01-08T19:16:09.354Z,12.68
2023-01-08T19:18:37.013Z,13.93
2023-01-08T19:21:06.265Z,14.18
2023-01-08T19:23:33.484Z,13.65
2023-01-08T19:26:04.478Z,11.63
2023-01-08T19:28:31.188Z,12.52
2023-01-08T19:31:01.141Z,11.45
2023-01-08T19:33:28.107Z,11.48
2023-01-08T19:35:54.820Z,13.63
2023-01-08T19:38:21.916Z,12.32
2023-01-08T19:40:48.641Z,13.68
2023-01-08T19:43:33.850Z,14.18
2023-01-08T19:46:06.896Z,11.48
2023-01-08T19:48:33.858Z,11.52
2023-01-08T19:51:08.538Z,10.35
2023-01-08T19:53:35.381Z,10.05
2023-01-08T19:56:04.501Z,12.10
2023-01-08T19:58:31.222Z,10.27
2023-01-08T20:00:57.987Z,9.77
2023-01-08T20:03:30.553Z,9.57
2023-01-08T20:05:57.377Z,10.68
2023-01-08T20:08:24.061Z,11.07
2023-01-08T20:10:50.798Z,10.50
2023-01-08T20:13:19.364Z,12.18
2023-01-08T20:15:55.661Z,13.35
2023-01-08T20:18:22.490Z,13.07
2023-01-08T20:20:49.281Z,13.00
2023-01-08T20:23:16.485Z,14.68
2023-01-08T20:25:43.181Z,12.68
2023-01-08T20:28:09.938Z,11.55
2023-01-08T20:30:36.713Z,14.68
2023-01-08T20:33:03.430Z,13.07
2023-01-08T20:35:30.164Z,12.18
2023-01-08T20:37:56.856Z,11.65
2023-01-08T20:40:23.602Z,13.18
2023-01-08T20:42:50.337Z,13.43
2023-01-08T20:45:17.064Z,13.23
2023-01-08T20:47:43.796Z,13.50
2023-01-08T20:50:19.454Z,12.32
2023-01-08T20:52:46.891Z,12.73
2023-01-08T20:55:13.599Z,14.88
2023-01-08T20:57:40.300Z,15.63
2023-01-08T21:00:07.708Z,13.52
2023-01-08T21:02:34.412Z,10.40
2023-01-08T21:05:01.109Z,13.48
2023-01-08T21:07:29.829Z,12.02
2023-01-08T21:09:56.551Z,12.57
2023-01-08T21:12:23.227Z,11.27
2023-01-08T21:14:50.001Z,14.18
2023-01-08T21:17:16.704Z,12.13
2023-01-08T21:19:43.550Z,13.38
2023-01-08T21:22:10.243Z,11.68
2023-01-08T21:24:37.224Z,15.77
2023-01-08T21:27:03.966Z,12.55
2023-01-08T21:29:30.723Z,13.80
2023-01-08T21:31:57.554Z,13.63
2023-01-08T21:34:24.329Z,13.18
2023-01-08T21:36:51.047Z,12.05
2023-01-08T21:39:17.826Z,12.02
2023-01-08T21:42:03.144Z,13.48
2023-01-08T21:44:48.577Z,12.32
2023-01-08T21:47:17.361Z,11.60
2023-01-08T21:49:45.508Z,11.30
2023-01-08T21:52:31.038Z,14.00
2023-01-08T21:54:58.218Z,13.35
2023-01-08T21:57:27.619Z,12.82
2023-01-08T21:59:55.161Z,13.73
2023-01-08T22:02:24.120Z,11.05
2023-01-08T22:04:55.225Z,11.48
2023-01-08T22:07:22.060Z,13.05
2023-01-08T22:09:48.778Z,11.30
2023-01-08T22:12:16.731Z,9.55
2023-01-08T22:14:43.896Z,11.52
2023-01-08T22:17:10.791Z,11.38
2023-01-08T22:19:38.533Z,10.25
2023-01-08T22:22:05.513Z,9.90
2023-01-08T22:24:32.248Z,10.45
2023-01-08T22:26:59.227Z,9.95
2023-01-08T22:29:26.124Z,10.15
2023-01-08T22:31:52.955Z,11.50
2023-01-08T22:34:19.774Z,10.98
2023-01-08T22:36:50.174Z,10.38
2023-01-08T22:39:17.014Z,9.73
2023-01-08T22:41:44.671Z,10.43
2023-01-08T22:44:12.271Z,10.40
2023-01-08T22:46:38.978Z,7.35
2023-01-08T22:49:05.756Z,8.80
2023-01-08T22:51:32.472Z,9.07
2023-01-08T22:53:59.838Z,8.00
2023-01-08T22:56:27.139Z,9.30
2023-01-08T22:58:54.024Z,9.77
2023-01-08T23:01:23.568Z,7.88
2023-01-08T23:03:57.519Z,9.30
2023-01-08T23:06:26.145Z,9.43
2023-01-08T23:08:53.427Z,9.38
2023-01-08T23:11:21.608Z,8.25
2023-01-08T23:13:48.859Z,6.97
2023-01-08T23:16:17.642Z,7.82
2023-01-08T23:18:44.706Z,9.10
2023-01-08T23:21:14.049Z,8.65
2023-01-08T23:23:41.099Z,6.82
2023-01-08T23:26:11.021Z,8.10
2023-01-08T23:28:38.667Z,10.30
2023-01-08T23:31:14.685Z,8.10
2023-01-08T23:33:41.559Z,9.73
2023-01-08T23:36:09.151Z,8.25
2023-01-08T23:38:35.995Z,8.57
2023-01-08T23:41:06.330Z,9.88
2023-01-08T23:46:06.849Z,6.95
2023-01-08T23:48:33.838Z,7.93
2023-01-08T23:51:00.778Z,9.15
2023-01-08T23:53:28.139Z,8.27
2023-01-08T23:55:55.047Z,7.93
2023-01-08T23:58:22.213Z,7.45
